Time;durP1;ratioP1;P1;durP2;ratioP2;P2;SDS_P1;SDS_P2;PMS_P1;PMS_P2;Temp;Humidity;BMP_temperature;BMP_pressure;BME280_temperature;BME280_humidity;BME280_pressure;Samples;Min_cycle;Max_cycle;Signal;HPM_P1;HPM_P2
2021/03/05 00:00:20;;;;;;;10.70;5.60;;;4.70;99.90;;;;;;4931467;29;20192;-78
2021/03/05 00:02:55;;;;;;;12.80;6.45;;;4.70;99.90;;;;;;4934856;29;20219;-78
2021/03/05 00:05:36;;;;;;;14.02;6.47;;;4.70;99.90;;;;;;4944463;29;20207;-78
2021/03/05 00:08:03;;;;;;;11.57;6.38;;;4.70;99.90;;;;;;4932301;29;20215;-77
2021/03/05 00:10:34;;;;;;;12.52;5.72;;;4.70;99.90;;;;;;4932347;29;20200;-77
2021/03/05 00:13:00;;;;;;;12.82;6.82;;;4.70;99.90;;;;;;4943395;29;20220;-78
2021/03/05 00:15:32;;;;;;;17.60;6.40;;;4.70;99.90;;;;;;4919970;29;20188;-77
2021/03/05 00:17:59;;;;;;;12.57;6.10;;;4.70;99.90;;;;;;4930602;29;20232;-77
2021/03/05 00:20:27;;;;;;;19.70;8.10;;;4.70;99.90;;;;;;4914834;29;20189;-77
2021/03/05 00:22:56;;;;;;;13.02;6.05;;;4.60;99.90;;;;;;4932340;29;20220;-78
2021/03/05 00:25:23;;;;;;;14.90;7.50;;;4.70;99.90;;;;;;4934883;29;20212;-78
2021/03/05 00:27:50;;;;;;;11.05;6.72;;;4.70;99.90;;;;;;4918035;29;20215;-78
2021/03/05 00:30:18;;;;;;;13.90;6.88;;;4.70;99.90;;;;;;4932596;29;20531;-77
2021/03/05 00:32:44;;;;;;;12.88;6.40;;;4.60;99.90;;;;;;4926602;28;20216;-77
2021/03/05 00:35:14;;;;;;;16.38;7.18;;;4.60;99.90;;;;;;4931602;29;20208;-78
2021/03/05 00:37:48;;;;;;;15.05;6.97;;;4.60;99.90;;;;;;4934240;28;20315;-78
2021/03/05 00:40:16;;;;;;;11.18;6.07;;;4.60;99.90;;;;;;4936415;29;20288;-78
2021/03/05 00:42:44;;;;;;;19.45;7.65;;;4.60;99.90;;;;;;4936124;28;20232;-78
2021/03/05 00:45:13;;;;;;;12.65;6.38;;;4.60;99.90;;;;;;4951814;29;20291;-78
2021/03/05 00:47:42;;;;;;;17.67;6.93;;;4.60;99.90;;;;;;4950627;29;20216;-78
2021/03/05 00:50:11;;;;;;;10.73;6.78;;;4.60;99.90;;;;;;4952954;29;20184;-78
2021/03/05 00:52:38;;;;;;;11.75;6.97;;;4.50;99.90;;;;;;4939160;28;20216;-78
2021/03/05 00:55:06;;;;;;;16.63;7.13;;;4.60;99.90;;;;;;4934030;29;20575;-77
2021/03/05 00:57:34;;;;;;;13.85;7.35;;;4.50;99.90;;;;;;4949121;28;20764;-78
2021/03/05 01:00:02;;;;;;;17.38;6.57;;;4.40;99.90;;;;;;4939532;29;20570;-77
2021/03/05 01:02:32;;;;;;;27.30;7.50;;;4.50;99.90;;;;;;4928203;29;20211;-77
2021/03/05 01:04:59;;;;;;;13.00;7.43;;;4.50;99.90;;;;;;4933469;29;20615;-78
2021/03/05 01:07:26;;;;;;;19.23;7.63;;;4.40;99.90;;;;;;4917842;29;20579;-78
2021/03/05 01:09:53;;;;;;;13.55;6.22;;;4.40;99.90;;;;;;4935714;29;20631;-77
2021/03/05 01:12:20;;;;;;;13.13;6.30;;;4.40;99.90;;;;;;4915625;29;20219;-78
2021/03/05 01:14:47;;;;;;;10.63;7.22;;;4.50;99.90;;;;;;4934021;29;20193;-78
2021/03/05 01:17:14;;;;;;;23.60;7.15;;;4.40;99.90;;;;;;4937698;28;20227;-77
2021/03/05 01:19:41;;;;;;;10.20;5.25;;;4.40;99.90;;;;;;4933886;29;20196;-77
2021/03/05 01:22:08;;;;;;;15.10;4.97;;;4.40;99.90;;;;;;4941232;28;20219;-77
2021/03/05 01:24:34;;;;;;;6.05;4.50;;;4.50;99.90;;;;;;4948471;29;20191;-78
2021/03/05 01:27:04;;;;;;;8.73;5.57;;;4.40;99.90;;;;;;4950132;28;20737;-78
2021/03/05 01:29:31;;;;;;;16.98;5.20;;;4.50;99.90;;;;;;4935284;29;20200;-78
2021/03/05 01:31:57;;;;;;;12.10;5.53;;;4.50;99.90;;;;;;4935467;28;20224;-78
2021/03/05 01:34:24;;;;;;;8.02;4.90;;;4.50;99.90;;;;;;4947019;28;20244;-78
2021/03/05 01:36:50;;;;;;;9.75;6.10;;;4.40;99.90;;;;;;4943035;29;20229;-78
2021/03/05 01:39:17;;;;;;;8.68;4.75;;;4.40;99.90;;;;;;4948167;29;20184;-78
2021/03/05 01:41:43;;;;;;;8.82;5.28;;;4.40;99.90;;;;;;4944400;29;20243;-78
2021/03/05 01:44:12;;;;;;;12.45;6.30;;;4.40;99.90;;;;;;4947497;29;20200;-77
2021/03/05 01:46:39;;;;;;;8.25;4.35;;;4.40;99.90;;;;;;4937551;28;20246;-78
2021/03/05 01:49:06;;;;;;;11.90;5.13;;;4.40;99.90;;;;;;4938115;29;20196;-77
2021/03/05 01:51:35;;;;;;;14.07;5.28;;;4.40;99.90;;;;;;4947873;28;20435;-78
2021/03/05 01:54:02;;;;;;;9.15;5.28;;;4.30;99.90;;;;;;4936581;29;20192;-78
2021/03/05 01:56:33;;;;;;;10.13;5.53;;;4.30;99.90;;;;;;4953484;28;20219;-77
2021/03/05 01:59:01;;;;;;;8.35;5.63;;;4.40;99.90;;;;;;4954357;29;20199;-77
2021/03/05 02:01:28;;;;;;;14.38;5.93;;;4.40;99.90;;;;;;4933883;29;20215;-77
2021/03/05 02:03:56;;;;;;;12.02;5.95;;;4.30;99.90;;;;;;4928864;29;20199;-77
2021/03/05 02:06:22;;;;;;;8.02;4.95;;;4.30;99.90;;;;;;4940152;28;20631;-77
2021/03/05 02:08:50;;;;;;;12.68;5.20;;;4.30;99.90;;;;;;4949814;29;20200;-78
2021/03/05 02:11:21;;;;;;;19.83;5.85;;;4.30;99.90;;;;;;4933207;29;20697;-78
2021/03/05 02:13:50;;;;;;;12.32;5.05;;;4.30;99.90;;;;;;4954404;29;20622;-77
2021/03/05 02:16:47;;;;;;;12.70;5.72;;;4.40;99.90;;;;;;4937186;29;20590;-77
2021/03/05 02:20:08;;;;;;;12.77;5.38;;;4.30;99.90;;;;;;4949024;29;20639;-78
2021/03/05 02:23:12;;;;;;;11.05;5.35;;;4.30;99.90;;;;;;4923849;29;20319;-78
2021/03/05 02:26:04;;;;;;;16.83;6.05;;;4.20;99.90;;;;;;4943224;28;20267;-78
2021/03/05 02:28:58;;;;;;;9.85;5.55;;;4.20;99.90;;;;;;4936769;29;20216;-78
2021/03/05 02:31:48;;;;;;;11.70;5.57;;;4.30;99.90;;;;;;4950084;29;20219;-77
2021/03/05 02:34:22;;;;;;;13.35;5.13;;;4.30;99.90;;;;;;4931745;29;20276;-77
2021/03/05 02:37:02;;;;;;;12.13;6.28;;;4.30;99.90;;;;;;4928373;29;20634;-77
2021/03/05 02:39:33;;;;;;;16.48;5.15;;;4.30;99.90;;;;;;4937164;28;20191;-78
2021/03/05 02:42:05;;;;;;;13.73;5.07;;;4.30;99.90;;;;;;4925620;28;21047;-77
2021/03/05 02:44:34;;;;;;;18.80;5.70;;;4.30;99.90;;;;;;4941276;29;20676;-76
2021/03/05 02:47:06;;;;;;;11.90;6.07;;;4.20;99.90;;;;;;4946742;29;20228;-77
2021/03/05 02:49:39;;;;;;;15.65;6.90;;;4.20;99.90;;;;;;4936391;29;20196;-77
2021/03/05 02:52:11;;;;;;;14.85;6.88;;;4.20;99.90;;;;;;4933395;28;20220;-77
2021/03/05 02:54:40;;;;;;;11.18;5.53;;;4.10;99.90;;;;;;4935305;29;20647;-77
2021/03/05 02:57:09;;;;;;;9.77;5.65;;;4.10;99.90;;;;;;4950430;28;20224;-77
2021/03/05 02:59:37;;;;;;;11.38;6.43;;;4.10;99.90;;;;;;4939311;29;20185;-77
2021/03/05 03:02:06;;;;;;;12.98;6.45;;;4.10;99.90;;;;;;4949589;28;20243;-77
2021/03/05 03:04:34;;;;;;;15.85;5.65;;;4.10;99.90;;;;;;4924330;29;20201;-76
2021/03/05 03:07:03;;;;;;;14.43;5.85;;;4.10;99.90;;;;;;4922944;29;20279;-77
2021/03/05 03:09:33;;;;;;;21.13;5.68;;;4.10;99.90;;;;;;4948747;29;20185;-77
2021/03/05 03:12:00;;;;;;;14.73;6.93;;;4.00;99.90;;;;;;4952271;28;20702;-78
2021/03/05 03:14:27;;;;;;;12.18;6.95;;;4.10;99.90;;;;;;4955879;29;20279;-78
2021/03/05 03:16:55;;;;;;;15.82;6.47;;;4.10;99.90;;;;;;4952345;29;20216;-78
2021/03/05 03:19:24;;;;;;;18.20;6.95;;;4.00;99.90;;;;;;4950388;29;20180;-78
2021/03/05 03:21:51;;;;;;;15.27;6.07;;;4.10;99.90;;;;;;4936436;28;20219;-78
2021/03/05 03:24:18;;;;;;;13.05;7.20;;;4.10;99.90;;;;;;4934010;29;20239;-78
2021/03/05 03:26:44;;;;;;;14.65;6.10;;;4.10;99.90;;;;;;4940604;28;20698;-78
2021/03/05 03:29:11;;;;;;;19.48;6.55;;;4.10;99.90;;;;;;4936530;29;20681;-78
2021/03/05 03:31:39;;;;;;;20.55;7.75;;;4.10;99.90;;;;;;4936682;29;20229;-78
2021/03/05 03:34:06;;;;;;;20.40;7.65;;;4.10;99.90;;;;;;4942274;29;20271;-78
2021/03/05 03:36:40;;;;;;;15.00;6.90;;;4.10;99.90;;;;;;4944075;28;20298;-78
2021/03/05 03:39:09;;;;;;;14.00;6.45;;;4.10;99.90;;;;;;4938687;29;20188;-78
2021/03/05 03:41:38;;;;;;;13.85;7.35;;;4.10;99.90;;;;;;4947350;28;20299;-78
2021/03/05 03:44:10;;;;;;;13.70;7.15;;;4.10;99.90;;;;;;4934274;29;20264;-78
2021/03/05 03:46:47;;;;;;;14.20;6.97;;;4.10;99.90;;;;;;4942946;29;20599;-78
2021/03/05 03:49:37;;;;;;;13.00;6.75;;;4.10;99.90;;;;;;4935723;29;20318;-78
2021/03/05 03:52:27;;;;;;;15.07;8.05;;;4.10;99.90;;;;;;4935094;29;20226;-78
2021/03/05 03:54:56;;;;;;;13.30;7.97;;;4.10;99.90;;;;;;4954535;29;20180;-77
2021/03/05 03:57:23;;;;;;;13.68;5.93;;;4.00;99.90;;;;;;4947462;28;20220;-77
2021/03/05 03:59:52;;;;;;;14.02;7.72;;;4.00;99.90;;;;;;4934688;29;20965;-78
2021/03/05 04:02:24;;;;;;;17.60;7.78;;;4.00;99.90;;;;;;4935204;29;20639;-77
2021/03/05 04:04:52;;;;;;;17.92;9.18;;;4.00;99.90;;;;;;4951802;28;20195;-78
2021/03/05 04:07:21;;;;;;;17.13;10.65;;;4.00;99.90;;;;;;4935949;29;20227;-78
2021/03/05 04:09:48;;;;;;;18.38;10.10;;;4.00;99.90;;;;;;4952206;29;20588;-78
2021/03/05 04:12:16;;;;;;;17.92;10.13;;;4.00;99.90;;;;;;4947601;28;20227;-78
2021/03/05 04:14:42;;;;;;;24.35;10.68;;;4.00;99.90;;;;;;4946855;29;20187;-78
2021/03/05 04:17:09;;;;;;;21.90;11.48;;;4.00;99.90;;;;;;4940759;29;20239;-78
2021/03/05 04:19:36;;;;;;;29.17;13.20;;;4.10;99.90;;;;;;4934748;29;20228;-78
2021/03/05 04:22:03;;;;;;;23.83;10.65;;;4.10;99.90;;;;;;4952278;29;20217;-78
2021/03/05 04:24:29;;;;;;;25.65;11.57;;;4.10;99.90;;;;;;4936278;29;20180;-77
2021/03/05 04:26:56;;;;;;;25.15;12.52;;;4.10;99.90;;;;;;4935965;29;20687;-78
2021/03/05 04:29:22;;;;;;;18.30;11.25;;;4.10;99.90;;;;;;4935826;29;20215;-77
2021/03/05 04:31:49;;;;;;;18.50;11.15;;;4.10;99.90;;;;;;4936612;28;20227;-78
2021/03/05 04:34:15;;;;;;;24.48;13.88;;;4.10;99.90;;;;;;4954059;29;20188;-78
2021/03/05 04:36:41;;;;;;;21.45;13.32;;;4.10;99.90;;;;;;4953191;29;20707;-78
2021/03/05 04:39:11;;;;;;;31.02;15.38;;;4.10;99.90;;;;;;4935334;29;20180;-78
2021/03/05 04:41:37;;;;;;;35.22;17.95;;;4.10;99.90;;;;;;4928050;29;20226;-78
2021/03/05 04:44:04;;;;;;;33.67;19.45;;;4.10;99.90;;;;;;4940483;29;20188;-78
2021/03/05 04:46:30;;;;;;;29.65;17.40;;;4.10;99.90;;;;;;4935356;28;20232;-78
2021/03/05 04:48:57;;;;;;;32.67;20.00;;;4.10;99.90;;;;;;4955639;29;20546;-78
2021/03/05 04:51:23;;;;;;;34.50;20.55;;;4.10;99.90;;;;;;4908031;29;20220;-78
2021/03/05 04:53:50;;;;;;;27.35;17.60;;;4.10;99.90;;;;;;4922460;29;20204;-78
2021/03/05 04:56:17;;;;;;;31.30;17.80;;;4.10;99.90;;;;;;4937122;29;20226;-77
2021/03/05 04:58:43;;;;;;;30.27;19.33;;;4.10;99.90;;;;;;4933197;29;20204;-77
2021/03/05 05:01:10;;;;;;;35.58;19.02;;;4.20;99.90;;;;;;4932312;29;20228;-78
2021/03/05 05:03:36;;;;;;;37.03;21.20;;;4.20;99.90;;;;;;4952528;28;20199;-77
2021/03/05 05:06:03;;;;;;;33.65;21.63;;;4.20;99.90;;;;;;4938914;28;20224;-77
2021/03/05 05:08:29;;;;;;;31.30;19.85;;;4.20;99.90;;;;;;4922105;29;20202;-77
2021/03/05 05:10:56;;;;;;;33.97;21.65;;;4.20;99.90;;;;;;4948219;28;20689;-78
2021/03/05 05:13:22;;;;;;;32.38;18.67;;;4.10;99.90;;;;;;4936479;29;20192;-77
2021/03/05 05:15:49;;;;;;;33.10;19.98;;;4.10;99.90;;;;;;4955799;29;20391;-78
2021/03/05 05:18:16;;;;;;;27.27;17.88;;;4.10;99.90;;;;;;4953324;29;20242;-77
2021/03/05 05:20:43;;;;;;;31.52;21.42;;;4.10;99.90;;;;;;4958160;29;20192;-77
2021/03/05 05:23:09;;;;;;;26.88;18.55;;;4.10;99.90;;;;;;4943699;29;20664;-78
2021/03/05 05:25:36;;;;;;;28.67;18.52;;;4.00;99.90;;;;;;4934665;29;20204;-77
2021/03/05 05:28:02;;;;;;;30.88;19.38;;;4.00;99.90;;;;;;4929936;29;20223;-77
2021/03/05 05:30:29;;;;;;;29.73;17.30;;;4.00;99.90;;;;;;4956385;28;20192;-77
2021/03/05 05:32:55;;;;;;;29.42;16.30;;;4.00;99.90;;;;;;4941009;29;20216;-77
2021/03/05 05:35:22;;;;;;;28.85;17.05;;;4.00;99.90;;;;;;4942018;29;20227;-77
2021/03/05 05:37:49;;;;;;;29.52;17.77;;;4.10;99.90;;;;;;4940141;29;20223;-77
2021/03/05 05:40:16;;;;;;;32.33;19.17;;;4.00;99.90;;;;;;4938195;29;20214;-77
2021/03/05 05:42:42;;;;;;;27.02;18.88;;;4.00;99.90;;;;;;4939959;28;20220;-78
2021/03/05 05:45:09;;;;;;;26.67;16.30;;;4.00;99.90;;;;;;4936319;29;20318;-77
2021/03/05 05:47:37;;;;;;;20.83;14.27;;;4.00;99.90;;;;;;4946343;28;20219;-77
2021/03/05 05:50:07;;;;;;;19.25;14.80;;;4.00;99.90;;;;;;4936069;29;20217;-77
2021/03/05 05:52:35;;;;;;;19.25;13.88;;;3.90;99.90;;;;;;4944456;28;20230;-77
2021/03/05 05:55:03;;;;;;;22.88;15.38;;;3.80;99.90;;;;;;4938240;29;20282;-77
2021/03/05 05:57:32;;;;;;;22.08;14.75;;;3.80;99.90;;;;;;4938293;28;20223;-77
2021/03/05 05:59:59;;;;;;;20.80;14.07;;;3.70;99.90;;;;;;4940682;29;20196;-77
2021/03/05 06:02:30;;;;;;;22.00;13.48;;;3.70;99.90;;;;;;4948522;29;20307;-77
2021/03/05 06:04:57;;;;;;;21.70;13.48;;;3.70;99.90;;;;;;4922290;29;20283;-77
2021/03/05 06:07:24;;;;;;;17.77;13.75;;;3.60;99.90;;;;;;4948864;28;20216;-77
2021/03/05 06:10:05;;;;;;;18.23;13.13;;;3.60;99.90;;;;;;4921948;29;20620;-77
2021/03/05 06:12:32;;;;;;;21.58;14.98;;;3.60;99.90;;;;;;4956446;28;20709;-78
2021/03/05 06:14:59;;;;;;;24.02;15.00;;;3.60;99.90;;;;;;4938454;29;20195;-77
2021/03/05 06:17:44;;;;;;;20.38;13.20;;;3.50;99.90;;;;;;4943249;28;20625;-77
2021/03/05 06:20:12;;;;;;;19.85;14.45;;;3.50;99.90;;;;;;4946025;29;20638;-77
2021/03/05 06:22:38;;;;;;;18.02;13.73;;;3.50;99.90;;;;;;4938597;29;20212;-77
2021/03/05 06:25:07;;;;;;;17.48;12.70;;;3.50;99.90;;;;;;4935834;29;20275;-77
2021/03/05 06:27:34;;;;;;;18.50;12.77;;;3.50;99.90;;;;;;4929981;28;20220;-77
2021/03/05 06:30:00;;;;;;;21.10;12.38;;;3.50;99.90;;;;;;4944059;29;20208;-78
2021/03/05 06:32:42;;;;;;;21.60;13.68;;;3.40;99.90;;;;;;4938248;28;20302;-77
2021/03/05 06:35:11;;;;;;;14.82;11.35;;;3.50;99.90;;;;;;4954081;29;20235;-77
2021/03/05 06:37:48;;;;;;;17.55;11.55;;;3.50;99.90;;;;;;4929741;29;20615;-77
2021/03/05 06:40:30;;;;;;;19.95;11.88;;;3.50;99.90;;;;;;4937881;28;20188;-77
2021/03/05 06:42:57;;;;;;;17.65;11.73;;;3.40;99.90;;;;;;4938165;29;20191;-77
2021/03/05 06:45:25;;;;;;;19.05;12.60;;;3.40;99.90;;;;;;4956826;29;20242;-77
2021/03/05 06:48:19;;;;;;;19.90;11.88;;;3.40;99.90;;;;;;4936428;29;20217;-78
2021/03/05 06:50:45;;;;;;;15.00;10.57;;;3.40;99.90;;;;;;4935765;28;20231;-76
2021/03/05 06:53:22;;;;;;;17.63;11.60;;;3.30;99.90;;;;;;4934544;29;20208;-77
2021/03/05 06:55:49;;;;;;;16.65;10.27;;;3.30;99.90;;;;;;4939677;28;20243;-78
2021/03/05 06:58:16;;;;;;;14.75;10.50;;;3.20;99.90;;;;;;4934477;29;20209;-77
2021/03/05 07:00:43;;;;;;;19.70;10.45;;;3.20;99.90;;;;;;4952909;29;20188;-77
2021/03/05 07:03:24;;;;;;;12.30;8.95;;;3.20;99.90;;;;;;4942415;29;20192;-76
2021/03/05 07:05:54;;;;;;;10.68;8.10;;;3.20;99.90;;;;;;4949395;28;20227;-77
2021/03/05 07:08:41;;;;;;;13.95;10.25;;;3.10;99.90;;;;;;4935571;29;20192;-77
2021/03/05 07:11:09;;;;;;;13.25;9.98;;;3.10;99.90;;;;;;4945147;28;20298;-76
2021/03/05 07:13:52;;;;;;;16.67;9.35;;;3.10;99.90;;;;;;4952427;29;20192;-77
2021/03/05 07:16:19;;;;;;;12.45;8.43;;;3.20;99.90;;;;;;4931017;29;20227;-76
2021/03/05 07:18:46;;;;;;;13.43;8.73;;;3.30;99.90;;;;;;4952030;29;20210;-77
2021/03/05 07:21:18;;;;;;;10.45;8.15;;;3.30;99.90;;;;;;4929694;29;20254;-77
2021/03/05 07:23:46;;;;;;;14.82;8.32;;;3.30;99.90;;;;;;4935312;29;20602;-76
2021/03/05 07:26:13;;;;;;;10.95;7.43;;;3.50;99.90;;;;;;4925315;29;20231;-76
2021/03/05 07:28:46;;;;;;;12.20;7.90;;;3.50;99.90;;;;;;4943369;29;20195;-76
2021/03/05 07:31:24;;;;;;;12.73;8.07;;;3.50;99.90;;;;;;4934165;29;20251;-76
2021/03/05 07:33:57;;;;;;;11.98;8.13;;;3.50;99.90;;;;;;4952348;29;20283;-76
2021/03/05 07:36:29;;;;;;;13.35;8.95;;;3.50;99.90;;;;;;4949344;28;20310;-77
2021/03/05 07:39:04;;;;;;;12.73;7.97;;;3.60;99.90;;;;;;4936390;29;20188;-77
2021/03/05 07:41:34;;;;;;;12.73;9.75;;;3.60;99.90;;;;;;4930324;29;20299;-77
2021/03/05 07:44:01;;;;;;;13.70;10.18;;;3.60;99.90;;;;;;4941522;29;20550;-77
2021/03/05 07:46:29;;;;;;;16.27;10.32;;;3.60;99.90;;;;;;4948572;29;20240;-77
2021/03/05 07:48:56;;;;;;;18.00;10.20;;;3.70;99.90;;;;;;4935559;29;20200;-77
2021/03/05 07:51:23;;;;;;;17.65;11.57;;;3.80;99.90;;;;;;4954378;29;20233;-77
2021/03/05 07:53:54;;;;;;;18.63;14.23;;;3.80;99.90;;;;;;4950389;29;20259;-77
2021/03/05 07:56:44;;;;;;;14.95;12.57;;;3.90;99.90;;;;;;4942766;28;20634;-77
2021/03/05 07:59:40;;;;;;;13.68;9.57;;;3.90;99.90;;;;;;4938877;29;20200;-77
2021/03/05 08:02:08;;;;;;;14.70;10.32;;;4.10;99.90;;;;;;4929910;29;20697;-77
2021/03/05 08:04:55;;;;;;;13.30;10.32;;;4.10;99.90;;;;;;4952578;29;20187;-77
2021/03/05 08:07:23;;;;;;;12.80;10.30;;;4.20;99.90;;;;;;4932811;28;20254;-76
2021/03/05 08:09:50;;;;;;;18.13;8.77;;;4.30;99.90;;;;;;4944624;29;20566;-77
2021/03/05 08:12:45;;;;;;;10.02;7.60;;;4.30;99.90;;;;;;4930818;29;20224;-77
2021/03/05 08:15:12;;;;;;;12.27;7.60;;;4.30;99.90;;;;;;4937349;29;20184;-76
2021/03/05 08:17:38;;;;;;;13.10;8.18;;;4.40;99.90;;;;;;4948989;28;20586;-77
2021/03/05 08:20:17;;;;;;;10.43;8.32;;;4.40;99.90;;;;;;4942073;29;20195;-76
2021/03/05 08:22:57;;;;;;;10.65;8.25;;;4.50;99.90;;;;;;4932974;28;20668;-77
2021/03/05 08:25:32;;;;;;;12.02;7.15;;;4.40;99.90;;;;;;4936159;29;20192;-77
2021/03/05 08:28:03;;;;;;;10.80;7.72;;;4.50;99.90;;;;;;4905024;29;20276;-77
2021/03/05 08:30:33;;;;;;;14.57;8.07;;;4.50;99.90;;;;;;4950813;29;20685;-77
2021/03/05 08:33:03;;;;;;;10.55;7.60;;;4.60;99.90;;;;;;4948406;29;20196;-76
2021/03/05 08:35:29;;;;;;;9.82;7.28;;;4.60;99.90;;;;;;4931729;29;20270;-77
2021/03/05 08:37:59;;;;;;;10.82;8.40;;;4.60;99.90;;;;;;4923249;29;20220;-77
2021/03/05 08:40:48;;;;;;;11.18;8.50;;;4.60;99.90;;;;;;4920046;29;20201;-77
2021/03/05 08:43:20;;;;;;;14.32;8.90;;;4.70;99.90;;;;;;4936512;29;20192;-77
2021/03/05 08:45:47;;;;;;;12.20;9.45;;;4.80;99.90;;;;;;4932829;29;20235;-77
2021/03/05 08:48:51;;;;;;;11.35;8.98;;;4.80;99.90;;;;;;4932803;29;20212;-77
2021/03/05 08:51:20;;;;;;;10.27;8.10;;;4.90;99.90;;;;;;4947981;29;20249;-77
2021/03/05 08:53:49;;;;;;;9.02;6.78;;;5.00;99.90;;;;;;4945856;29;20208;-76
2021/03/05 08:56:21;;;;;;;11.38;8.10;;;5.00;99.90;;;;;;4950883;29;20226;-77
2021/03/05 08:59:11;;;;;;;8.68;6.97;;;5.10;99.90;;;;;;4935095;29;20203;-77
2021/03/05 09:01:49;;;;;;;12.85;8.63;;;5.10;99.90;;;;;;4933530;28;20220;-76
2021/03/05 09:04:17;;;;;;;11.85;8.95;;;5.10;99.90;;;;;;4936144;29;20205;-77
2021/03/05 09:06:59;;;;;;;8.55;7.57;;;5.10;99.90;;;;;;4935828;29;20220;-77
2021/03/05 09:09:33;;;;;;;14.23;8.05;;;5.20;99.90;;;;;;4935849;29;20236;-77
2021/03/05 09:12:19;;;;;;;7.50;5.90;;;5.20;99.90;;;;;;4947757;28;20230;-77
2021/03/05 09:14:47;;;;;;;8.27;6.63;;;5.30;99.90;;;;;;4950903;29;20192;-77
2021/03/05 09:17:15;;;;;;;10.63;5.40;;;5.50;99.90;;;;;;4932189;29;20252;-77
2021/03/05 09:19:47;;;;;;;7.40;5.50;;;5.60;99.90;;;;;;4936128;29;20231;-77
2021/03/05 09:22:17;;;;;;;7.88;5.50;;;5.80;99.90;;;;;;4946807;29;20229;-77
2021/03/05 09:24:52;;;;;;;8.35;5.60;;;5.80;99.90;;;;;;4939074;29;20244;-77
2021/03/05 09:27:20;;;;;;;6.40;5.40;;;5.80;99.90;;;;;;4935018;28;20230;-77
2021/03/05 09:29:58;;;;;;;7.53;6.07;;;5.80;99.90;;;;;;4948572;29;20557;-76
2021/03/05 09:32:28;;;;;;;8.65;5.90;;;5.90;99.90;;;;;;4939662;28;20226;-77
2021/03/05 09:34:57;;;;;;;11.55;5.57;;;6.00;99.90;;;;;;4942251;29;20697;-76
2021/03/05 09:37:29;;;;;;;7.50;4.47;;;6.10;99.90;;;;;;4946413;28;20231;-76
2021/03/05 09:39:58;;;;;;;6.57;5.18;;;6.20;99.90;;;;;;4932366;29;20189;-76
2021/03/05 09:42:52;;;;;;;7.95;5.00;;;6.30;99.90;;;;;;4944509;28;20322;-76
2021/03/05 09:45:38;;;;;;;6.35;4.43;;;6.50;99.90;;;;;;4954023;28;20188;-76
2021/03/05 09:48:09;;;;;;;8.80;5.45;;;6.60;99.90;;;;;;4951206;29;20208;-76
2021/03/05 09:50:37;;;;;;;7.97;5.38;;;6.80;99.90;;;;;;4939193;28;20726;-76
2021/03/05 09:53:24;;;;;;;5.80;5.00;;;6.90;99.90;;;;;;4934586;29;20227;-76
2021/03/05 09:55:53;;;;;;;5.30;4.72;;;7.00;99.90;;;;;;4938406;29;20216;-77
2021/03/05 09:58:24;;;;;;;5.90;5.28;;;7.20;99.90;;;;;;4944705;29;20279;-78
2021/03/05 10:00:56;;;;;;;7.28;4.38;;;7.30;99.90;;;;;;4936579;29;20230;-76
2021/03/05 10:03:23;;;;;;;6.97;5.25;;;7.50;99.90;;;;;;4950476;28;20204;-75
2021/03/05 10:05:52;;;;;;;5.35;4.10;;;7.50;99.90;;;;;;4938172;29;20225;-76
2021/03/05 10:08:28;;;;;;;5.97;4.55;;;7.60;99.50;;;;;;4916782;29;20204;-77
2021/03/05 10:11:10;;;;;;;6.05;3.90;;;7.70;99.00;;;;;;4931173;29;20252;-77
2021/03/05 10:13:47;;;;;;;9.17;5.33;;;7.90;96.60;;;;;;4945208;28;20248;-76
2021/03/05 10:16:29;;;;;;;5.60;3.90;;;8.00;96.80;;;;;;4918093;28;22444;-76
2021/03/05 10:19:07;;;;;;;4.65;3.85;;;8.10;95.30;;;;;;4946430;29;20269;-76
2021/03/05 10:21:47;;;;;;;7.17;4.03;;;8.40;94.70;;;;;;4951129;29;20213;-77
2021/03/05 10:24:28;;;;;;;8.20;4.60;;;8.40;93.60;;;;;;4952378;29;20494;-77
2021/03/05 10:29:57;;;;;;;6.05;5.45;;;8.40;93.30;;;;;;4937948;29;20200;-75
2021/03/05 10:32:29;;;;;;;6.93;5.37;;;8.20;94.90;;;;;;4923461;29;20633;-76
2021/03/05 10:34:58;;;;;;;6.35;4.20;;;8.30;93.90;;;;;;4936705;29;20563;-76
2021/03/05 10:37:26;;;;;;;6.35;4.57;;;8.20;92.30;;;;;;4951665;29;20254;-76
2021/03/05 10:39:54;;;;;;;5.05;4.45;;;8.20;94.40;;;;;;4951750;29;20193;-76
2021/03/05 10:42:24;;;;;;;8.68;5.55;;;8.30;94.10;;;;;;4949988;28;20259;-76
2021/03/05 10:44:51;;;;;;;6.45;4.50;;;8.20;94.20;;;;;;4933493;29;20612;-76
2021/03/05 10:47:19;;;;;;;6.22;5.32;;;8.10;94.20;;;;;;4951575;28;20231;-77
2021/03/05 10:49:50;;;;;;;6.22;4.95;;;8.10;93.50;;;;;;4933296;29;20200;-77
2021/03/05 10:52:19;;;;;;;7.60;5.80;;;8.10;93.60;;;;;;4936838;28;20224;-77
2021/03/05 10:54:49;;;;;;;7.65;5.28;;;7.90;91.90;;;;;;4920845;29;20197;-77
2021/03/05 10:57:17;;;;;;;6.97;5.82;;;7.80;91.80;;;;;;4953519;28;20274;-77
2021/03/05 10:59:51;;;;;;;6.22;5.63;;;7.70;92.10;;;;;;4938223;29;20202;-77
2021/03/05 11:02:46;;;;;;;8.32;5.40;;;7.70;91.80;;;;;;4945924;23;20215;31
2021/03/05 11:05:13;;;;;;;7.10;5.72;;;7.70;93.60;;;;;;4944743;29;20252;-82
2021/03/05 11:07:40;;;;;;;7.50;6.47;;;7.70;92.80;;;;;;4946547;29;20221;-82
2021/03/05 11:10:07;;;;;;;10.52;7.60;;;7.70;91.40;;;;;;4946867;29;20193;-81
2021/03/05 11:12:33;;;;;;;11.63;7.72;;;7.60;91.60;;;;;;4929916;29;20222;-81
2021/03/05 11:15:00;;;;;;;9.05;7.75;;;7.60;92.90;;;;;;4931624;29;20602;-82
2021/03/05 11:17:27;;;;;;;8.40;7.70;;;7.60;92.90;;;;;;4932340;29;20232;-81
2021/03/05 11:19:55;;;;;;;7.72;6.93;;;7.70;92.00;;;;;;4931393;29;20197;-82
2021/03/05 11:22:22;;;;;;;9.32;7.43;;;7.70;93.20;;;;;;4930425;29;20213;-81
2021/03/05 11:24:48;;;;;;;13.63;7.85;;;7.80;93.30;;;;;;4938926;29;20213;-82
2021/03/05 11:27:15;;;;;;;8.70;7.50;;;7.70;91.80;;;;;;4929078;29;20224;-82
2021/03/05 11:29:42;;;;;;;10.48;7.30;;;7.60;93.40;;;;;;4944242;29;20271;-79
2021/03/05 11:32:11;;;;;;;8.35;7.55;;;7.60;92.50;;;;;;4931337;29;20234;-78
2021/03/05 11:34:39;;;;;;;7.97;7.18;;;7.60;91.80;;;;;;4935663;29;20186;-78
2021/03/05 11:37:05;;;;;;;8.20;6.90;;;7.60;91.60;;;;;;4921392;29;20220;-77
2021/03/05 11:39:32;;;;;;;8.70;7.88;;;7.50;90.80;;;;;;4938022;29;20228;-80
2021/03/05 11:41:59;;;;;;;10.18;8.98;;;7.50;90.40;;;;;;4927863;29;20228;-82
2021/03/05 11:44:27;;;;;;;9.10;8.20;;;7.50;91.10;;;;;;4942906;29;20667;-81
2021/03/05 11:46:54;;;;;;;9.30;8.50;;;7.60;88.90;;;;;;4942478;29;20706;-80
2021/03/05 11:49:20;;;;;;;9.43;8.48;;;7.60;87.50;;;;;;4944395;29;20197;-80
2021/03/05 11:51:47;;;;;;;8.30;7.50;;;7.40;88.40;;;;;;4937963;28;20224;-80
2021/03/05 11:54:14;;;;;;;9.05;6.93;;;7.50;90.00;;;;;;4925867;29;20193;-81
2021/03/05 11:56:41;;;;;;;8.27;7.07;;;7.50;90.20;;;;;;4928923;28;20225;-82
2021/03/05 11:59:08;;;;;;;9.75;7.40;;;7.50;85.70;;;;;;4919596;29;20205;-77
2021/03/05 12:01:36;;;;;;;8.52;7.72;;;7.40;85.90;;;;;;4933364;29;20318;-81
2021/03/05 12:04:03;;;;;;;8.20;7.38;;;7.40;88.10;;;;;;4922487;29;20215;-79
2021/03/05 12:06:33;;;;;;;8.40;7.60;;;7.40;88.40;;;;;;4928638;29;20280;-78
2021/03/05 12:09:08;;;;;;;9.80;7.32;;;7.50;85.20;;;;;;4926555;29;20278;-78
2021/03/05 12:11:40;;;;;;;7.00;6.20;;;7.40;85.60;;;;;;4911726;29;20225;-80
2021/03/05 12:14:07;;;;;;;7.88;6.38;;;7.50;89.60;;;;;;4920571;29;20277;-77
2021/03/05 12:16:33;;;;;;;7.30;6.60;;;7.60;89.40;;;;;;4924420;29;20320;-80
2021/03/05 12:19:00;;;;;;;6.43;5.65;;;7.70;89.10;;;;;;4904885;29;20223;-77
2021/03/05 12:21:27;;;;;;;6.03;5.53;;;7.90;82.60;;;;;;4919372;29;20220;-80
2021/03/05 12:23:54;;;;;;;7.28;5.35;;;7.90;81.90;;;;;;4931264;29;20189;-81
2021/03/05 12:26:21;;;;;;;6.30;5.63;;;8.00;82.60;;;;;;4922716;29;20235;-80
2021/03/05 12:28:48;;;;;;;5.90;4.55;;;8.00;82.60;;;;;;4935707;29;20185;-78
2021/03/05 12:31:14;;;;;;;11.98;5.65;;;8.00;82.60;;;;;;4927380;29;20284;-78
2021/03/05 12:33:43;;;;;;;6.70;5.57;;;8.00;82.60;;;;;;4922966;29;20201;-79
2021/03/05 12:36:11;;;;;;;6.80;6.10;;;7.90;84.90;;;;;;4923670;29;20225;-81
2021/03/05 12:38:38;;;;;;;8.45;5.85;;;7.80;83.50;;;;;;4936717;29;20200;-77
2021/03/05 12:41:04;;;;;;;6.22;5.60;;;7.60;82.30;;;;;;4937641;29;20228;-81
2021/03/05 12:43:31;;;;;;;11.23;5.65;;;7.60;83.40;;;;;;4921886;29;20229;-80
2021/03/05 12:45:59;;;;;;;9.48;8.25;;;7.50;82.10;;;;;;4921776;29;20224;-78
2021/03/05 12:48:40;;;;;;;8.00;6.78;;;7.40;86.10;;;;;;4921485;29;20193;-80
2021/03/05 12:51:06;;;;;;;8.00;7.20;;;7.40;83.80;;;;;;4937601;29;20236;-81
2021/03/05 12:53:33;;;;;;;11.00;6.25;;;7.30;85.20;;;;;;4940550;29;20181;-80
2021/03/05 12:56:00;;;;;;;7.35;6.53;;;7.30;83.20;;;;;;4936948;29;20220;-81
2021/03/05 12:58:29;;;;;;;6.35;5.75;;;7.30;86.20;;;;;;4936564;29;20180;-81
2021/03/05 13:01:02;;;;;;;10.60;6.90;;;7.30;86.30;;;;;;4937554;29;20223;-80
2021/03/05 13:03:34;;;;;;;8.07;6.07;;;7.20;84.70;;;;;;4942509;29;20223;-84
2021/03/05 13:06:00;;;;;;;7.95;6.85;;;7.10;86.40;;;;;;4923465;29;20231;-82
2021/03/05 13:08:27;;;;;;;8.38;6.50;;;7.10;85.20;;;;;;4922220;29;20717;-83